Time;durP1;ratioP1;P1;durP2;ratioP2;P2;SDS_P1;SDS_P2;PMS_P1;PMS_P2;Temp;Humidity;BMP_temperature;BMP_pressure;BME280_temperature;BME280_humidity;BME280_pressure;Samples;Min_cycle;Max_cycle;Signal;HPM_P1;HPM_P2
2022/12/26 00:00:01;;;;;;;36.63;20.48;;;;;;;6.41;91.99;100593.63;1581315;89;21094;-77
2022/12/26 00:02:46;;;;;;;31.45;18.60;;;;;;;6.43;92.00;100595.77;1569233;89;21090;-77
2022/12/26 00:05:36;;;;;;;34.60;17.85;;;;;;;6.45;92.02;100593.63;1571852;89;21135;-77
2022/12/26 00:08:21;;;;;;;37.75;18.77;;;;;;;6.46;91.96;100580.35;1570076;89;21146;-77
2022/12/26 00:11:06;;;;;;;29.95;17.98;;;;;;;6.46;92.02;100567.52;1569177;89;21365;-77
2022/12/26 00:14:03;;;;;;;31.93;19.00;;;;;;;6.47;91.99;100560.23;1570144;88;21622;-77
2022/12/26 00:16:47;;;;;;;40.12;19.52;;;;;;;6.46;92.05;100547.81;1572099;89;21710;-77
2022/12/26 00:19:32;;;;;;;30.52;18.17;;;;;;;6.46;92.05;100547.81;1566259;87;203157;-77
2022/12/26 00:22:18;;;;;;;33.00;18.32;;;;;;;6.47;92.04;100544.82;1608222;87;21567;-76
2022/12/26 00:25:03;;;;;;;31.37;18.23;;;;;;;6.47;92.04;100537.12;1599691;87;21520;-76
2022/12/26 00:27:48;;;;;;;33.53;19.40;;;;;;;6.45;92.05;100528.13;1618843;86;21984;-77
2022/12/26 00:30:37;;;;;;;30.92;17.52;;;;;;;6.47;92.06;100521.70;1641801;85;21108;-77
2022/12/26 00:33:21;;;;;;;32.33;19.27;;;;;;;6.48;92.10;100525.56;1637988;85;21068;-77
2022/12/26 00:36:14;;;;;;;30.55;16.90;;;;;;;6.49;92.10;100531.13;1576459;88;21510;-77
2022/12/26 00:39:02;;;;;;;31.23;17.37;;;;;;;6.50;92.10;100530.27;1595367;88;21065;-77
2022/12/26 00:41:47;;;;;;;26.27;17.02;;;;;;;6.51;92.10;100507.58;1580450;88;21462;-77
2022/12/26 00:44:32;;;;;;;27.48;16.67;;;;;;;6.52;92.13;100506.72;1646021;86;22279;-77
2022/12/26 00:47:17;;;;;;;29.92;17.40;;;;;;;6.54;92.14;100505.00;1641411;86;21540;-77
2022/12/26 00:50:03;;;;;;;20.92;14.95;;;;;;;6.57;92.16;100513.13;1638649;85;21079;-77
2022/12/26 00:52:48;;;;;;;27.22;16.62;;;;;;;6.56;92.17;100507.14;1643292;86;21052;-77
2022/12/26 00:55:33;;;;;;;26.35;15.93;;;;;;;6.59;92.15;100507.56;1642867;83;20985;-77
2022/12/26 00:58:19;;;;;;;24.32;15.40;;;;;;;6.60;92.19;100516.98;1646347;86;21097;-77
2022/12/26 01:01:22;;;;;;;29.35;15.20;;;;;;;6.61;92.20;100502.00;1639898;86;21076;-77
2022/12/26 01:04:07;;;;;;;29.10;15.68;;;;;;;6.63;92.20;100497.28;1639821;85;21600;-77
2022/12/26 01:06:52;;;;;;;26.07;15.45;;;;;;;6.64;92.21;100501.56;1641599;86;20977;-77
2022/12/26 01:09:37;;;;;;;27.65;15.55;;;;;;;6.66;92.20;100496.42;1574340;89;21597;-77
2022/12/26 01:12:23;;;;;;;27.95;14.63;;;;;;;6.66;92.22;100483.58;1577560;89;21095;-77
2022/12/26 01:15:09;;;;;;;28.77;15.60;;;;;;;6.68;92.24;100479.29;1567551;89;21022;-77
2022/12/26 01:17:53;;;;;;;22.27;14.00;;;;;;;6.69;92.24;100491.28;1583275;89;21441;-77
2022/12/26 01:20:39;;;;;;;24.35;13.45;;;;;;;6.70;92.27;100480.57;1579069;89;21027;-77
2022/12/26 01:23:24;;;;;;;22.95;13.10;;;;;;;6.71;92.27;100481.85;1609803;88;22366;-77
2022/12/26 01:26:09;;;;;;;31.73;15.58;;;;;;;6.72;92.29;100472.00;1601352;88;21471;-77
2022/12/26 01:28:54;;;;;;;25.97;12.88;;;;;;;6.74;92.32;100451.02;1605057;88;20999;-77
2022/12/26 01:31:39;;;;;;;25.90;12.88;;;;;;;6.76;92.35;100451.00;1586883;86;21125;-77
2022/12/26 01:34:24;;;;;;;32.00;13.15;;;;;;;6.78;92.35;100442.41;1587240;88;21072;-77
2022/12/26 01:37:12;;;;;;;25.10;13.45;;;;;;;6.79;92.34;100426.55;1588695;88;21091;-77
2022/12/26 01:39:57;;;;;;;24.10;13.35;;;;;;;6.81;92.35;100427.40;1632234;85;21100;-77
2022/12/26 01:42:43;;;;;;;24.98;13.80;;;;;;;6.83;92.36;100425.69;1626603;86;21471;-77
2022/12/26 01:45:31;;;;;;;25.12;13.22;;;;;;;6.84;92.38;100417.97;1618043;86;21044;-77
2022/12/26 01:48:32;;;;;;;28.15;13.25;;;;;;;6.85;92.36;100408.54;1637733;86;21557;-77
2022/12/26 01:51:15;;;;;;;24.77;13.00;;;;;;;6.85;92.36;100427.38;1634929;86;21063;-77
2022/12/26 01:54:03;;;;;;;23.07;12.58;;;;;;;6.86;92.37;100417.95;1637239;86;21072;-77
2022/12/26 01:56:48;;;;;;;19.75;12.65;;;;;;;6.87;92.36;100399.11;1627296;86;21100;-77
2022/12/26 01:59:37;;;;;;;22.45;12.63;;;;;;;6.87;92.36;100400.39;1624289;86;21099;-77
2022/12/26 02:02:25;;;;;;;23.38;12.47;;;;;;;6.87;92.36;100407.67;1639796;86;20985;-77
2022/12/26 02:08:22;;;;;;;19.77;11.55;;;;;;;6.87;92.37;100387.55;1628914;86;21016;-77
2022/12/26 02:11:24;;;;;;;18.92;10.70;;;;;;;6.87;92.40;100377.27;1631224;86;21069;-77
2022/12/26 02:14:10;;;;;;;20.80;11.65;;;;;;;6.89;92.41;100370.40;1639072;85;21537;-77
2022/12/26 02:16:55;;;;;;;16.05;10.88;;;;;;;6.89;92.42;100372.97;1640548;86;21383;-77
2022/12/26 02:20:16;;;;;;;18.85;11.53;;;;;;;6.93;92.46;100379.80;1631529;86;21060;-77
2022/12/26 02:23:35;;;;;;;16.65;11.33;;;;;;;6.94;92.48;100374.66;1616806;86;21645;-77
2022/12/26 02:26:48;;;;;;;21.77;11.22;;;;;;;6.97;92.48;100378.93;1643006;86;21101;-77
2022/12/26 02:29:47;;;;;;;13.22;10.30;;;;;;;6.99;92.55;100365.64;1633190;85;21043;-77
2022/12/26 02:33:14;;;;;;;19.60;11.35;;;;;;;7.02;92.55;100364.34;1635927;85;21574;-77
2022/12/26 02:36:16;;;;;;;20.40;10.98;;;;;;;7.05;92.58;100357.89;1639413;86;21079;-77
2022/12/26 02:39:26;;;;;;;21.57;10.55;;;;;;;7.07;92.56;100343.31;1637413;86;21061;-77
2022/12/26 02:42:35;;;;;;;16.23;10.60;;;;;;;7.09;92.56;100327.45;1634936;85;21004;-77
2022/12/26 02:49:07;;;;;;;20.08;10.65;;;;;;;7.13;92.58;100321.86;1644158;86;21093;-77
2022/12/26 03:13:51;;;;;;;16.97;9.93;;;;;;;7.21;92.64;100290.52;1637740;86;21067;-77
2022/12/26 03:19:58;;;;;;;17.45;9.65;;;;;;;7.25;92.67;100294.77;1644635;86;21341;-77
2022/12/26 03:22:50;;;;;;;14.73;10.30;;;;;;;7.27;92.66;100279.75;1643817;86;21641;-77
2022/12/26 03:32:09;;;;;;;15.72;10.50;;;;;;;7.33;92.69;100292.11;1638376;85;21128;-77
2022/12/26 03:34:55;;;;;;;14.85;9.73;;;;;;;7.33;92.70;100298.11;1627171;86;21112;-77
2022/12/26 03:37:54;;;;;;;20.10;10.40;;;;;;;7.34;92.67;100286.09;1626711;86;21103;-77
2022/12/26 04:20:46;;;;;;;19.65;10.18;;;;;;;7.43;92.70;100284.30;1628343;86;21357;-77
2022/12/26 04:45:42;;;;;;;14.90;9.70;;;;;;;7.50;92.80;100272.24;1632376;85;21010;-77
2022/12/26 04:51:31;;;;;;;15.53;8.83;;;;;;;7.52;92.81;100255.08;1625403;86;21135;-78
2022/12/26 04:54:16;;;;;;;14.33;9.25;;;;;;;7.53;92.84;100259.35;1636744;85;21060;-78
2022/12/26 04:57:02;;;;;;;15.83;9.45;;;;;;;7.53;92.85;100252.48;1635976;86;21080;-77
2022/12/26 04:59:46;;;;;;;14.07;9.65;;;;;;;7.55;92.89;100247.33;1642368;86;21076;-77
2022/12/26 05:11:53;;;;;;;13.32;8.33;;;;;;;7.60;92.87;100219.40;1633206;85;21670;-77
2022/12/26 05:14:38;;;;;;;14.10;8.30;;;;;;;7.58;92.82;100233.15;1634335;85;21124;-77
2022/12/26 05:29:38;;;;;;;11.63;8.10;;;;;;;7.57;92.92;100234.87;1626617;85;21490;-77
2022/12/26 05:35:26;;;;;;;11.65;7.85;;;;;;;7.62;92.99;100232.25;1642939;85;21084;-77
2022/12/26 05:38:11;;;;;;;12.53;7.83;;;;;;;7.63;92.98;100233.95;1645108;86;21691;-77
2022/12/26 05:40:56;;;;;;;9.15;7.05;;;;;;;7.66;92.99;100225.35;1644661;86;21115;-77
2022/12/26 05:43:41;;;;;;;9.48;7.95;;;;;;;7.68;92.99;100230.91;1648295;85;21047;-77
2022/12/26 05:46:26;;;;;;;9.20;7.65;;;;;;;7.69;93.00;100233.89;1645179;85;21115;-77
2022/12/26 05:49:12;;;;;;;10.63;7.05;;;;;;;7.71;92.99;100237.73;1643545;85;21680;-77
2022/12/26 05:51:57;;;;;;;9.83;7.20;;;;;;;7.71;92.97;100234.73;1646619;86;21014;-77
2022/12/26 05:54:42;;;;;;;10.15;7.12;;;;;;;7.72;92.96;100237.72;1654324;85;21092;-77
2022/12/26 05:57:28;;;;;;;13.68;8.75;;;;;;;7.73;92.98;100233.43;1640744;86;21159;-77
2022/12/26 06:00:15;;;;;;;9.55;8.58;;;;;;;7.74;93.01;100235.13;1635890;85;21100;-77
2022/12/26 06:03:00;;;;;;;14.87;9.60;;;;;;;7.76;93.01;100249.69;1634917;85;20933;-77
2022/12/26 06:05:45;;;;;;;13.72;9.93;;;;;;;7.78;93.02;100248.39;1644299;86;21046;-77
2022/12/26 06:08:30;;;;;;;12.07;9.05;;;;;;;7.80;93.04;100247.94;1641178;86;21411;-77
2022/12/26 06:11:17;;;;;;;12.95;8.95;;;;;;;7.81;93.04;100226.02;1642513;86;21325;-77
2022/12/26 06:14:03;;;;;;;;;;;;;;;7.82;93.04;100234.16;1633312;85;21688;-77
2022/12/26 06:16:48;;;;;;;11.70;7.47;;;;;;;7.84;93.09;100233.70;1640686;85;20223;-77
2022/12/26 06:19:33;;;;;;;13.88;7.60;;;;;;;7.85;93.08;100229.41;1644137;86;21659;-77
2022/12/26 06:22:19;;;;;;;11.50;7.17;;;;;;;7.87;93.08;100228.95;1641955;86;21076;-77
2022/12/26 06:25:05;;;;;;;10.10;6.87;;;;;;;7.86;93.09;100219.09;1649682;86;21569;-77
2022/12/26 06:27:50;;;;;;;9.65;6.72;;;;;;;7.89;93.09;100229.79;1631167;85;21087;-77
2022/12/26 06:30:35;;;;;;;10.25;7.20;;;;;;;7.89;93.09;100234.50;1636978;86;21079;-77
2022/12/26 06:33:21;;;;;;;8.45;6.62;;;;;;;7.92;93.12;100229.32;1637761;86;21394;-77
2022/12/26 06:36:10;;;;;;;10.40;7.15;;;;;;;7.92;93.11;100222.88;1643433;86;21120;-77
2022/12/26 06:38:56;;;;;;;12.43;6.28;;;;;;;7.94;93.14;100221.58;1638700;85;21032;-77
2022/12/26 06:41:40;;;;;;;9.65;6.65;;;;;;;7.96;93.15;100223.27;1634824;85;21024;-77
2022/12/26 06:44:26;;;;;;;8.78;6.35;;;;;;;7.97;93.13;100227.98;1642865;85;21612;-77
2022/12/26 06:47:11;;;;;;;9.75;6.08;;;;;;;7.97;93.13;100219.83;1642814;86;21346;-77
2022/12/26 06:49:56;;;;;;;10.05;6.55;;;;;;;7.97;93.10;100230.13;1647221;86;21525;-77
2022/12/26 06:52:41;;;;;;;11.83;7.92;;;;;;;7.98;93.11;100233.55;1637741;86;21631;-77
2022/12/26 06:55:26;;;;;;;8.13;6.58;;;;;;;7.99;93.13;100230.11;1643837;85;21060;-77
2022/12/26 06:58:12;;;;;;;11.60;6.72;;;;;;;8.00;93.15;100230.95;1641447;86;21108;-77
2022/12/26 07:01:07;;;;;;;12.68;7.17;;;;;;;8.02;93.19;100234.36;1632735;85;21590;-77
2022/12/26 07:03:53;;;;;;;12.50;7.05;;;;;;;8.03;93.17;100243.80;1636052;85;21055;-77
2022/12/26 07:06:39;;;;;;;11.55;7.60;;;;;;;8.05;93.18;100234.33;1571982;88;21569;-77
2022/12/26 07:09:24;;;;;;;;;;;;;;;8.05;93.18;100237.76;1577592;88;21091;-77
2022/12/26 07:12:09;;;;;;;9.80;6.33;;;;;;;8.07;93.25;100236.02;1641679;85;20161;-77
2022/12/26 07:14:54;;;;;;;10.35;7.47;;;;;;;8.08;93.23;100234.30;1571154;88;21632;-77
2022/12/26 07:17:39;;;;;;;9.08;7.47;;;;;;;8.10;93.21;100237.70;1585282;88;21060;-77
2022/12/26 07:20:25;;;;;;;10.38;7.15;;;;;;;8.11;93.24;100242.84;1621309;87;21561;-77
2022/12/26 07:23:10;;;;;;;9.40;6.83;;;;;;;8.13;93.24;100240.24;1570065;89;21151;-77
2022/12/26 07:25:55;;;;;;;12.50;6.30;;;;;;;8.15;93.21;100246.23;1596006;88;21620;-77
2022/12/26 07:28:40;;;;;;;14.10;6.75;;;;;;;8.14;93.18;100239.38;1582554;88;21149;-77
2022/12/26 07:31:29;;;;;;;9.03;6.40;;;;;;;8.15;93.16;100242.36;1599832;88;21694;-77
2022/12/26 07:34:14;;;;;;;8.55;6.62;;;;;;;8.15;93.13;100233.35;1647027;85;21121;-77
2022/12/26 07:36:59;;;;;;;8.38;6.60;;;;;;;8.12;93.08;100229.53;1651966;86;21470;-77
2022/12/26 07:39:44;;;;;;;11.28;5.97;;;;;;;8.11;93.08;100218.81;1644036;85;21135;-77
2022/12/26 07:42:29;;;;;;;9.73;5.72;;;;;;;8.09;93.07;100222.69;1642237;85;21099;-77
2022/12/26 07:45:14;;;;;;;10.90;5.55;;;;;;;8.07;93.09;100219.28;1640633;85;21476;-77
2022/12/26 07:47:59;;;;;;;8.18;6.40;;;;;;;8.06;93.10;100213.72;1655075;85;21029;-77
2022/12/26 07:50:46;;;;;;;8.03;5.75;;;;;;;8.07;93.14;100222.29;1644214;85;21540;-77
2022/12/26 07:53:30;;;;;;;11.00;6.35;;;;;;;8.09;93.21;100225.70;1629641;85;21523;-77
2022/12/26 07:56:16;;;;;;;7.83;5.80;;;;;;;8.14;93.28;100231.65;1640156;84;21084;-77
2022/12/26 07:59:01;;;;;;;10.68;6.00;;;;;;;8.18;93.31;100241.05;1639684;85;21558;-77
2022/12/26 08:01:46;;;;;;;8.40;6.10;;;;;;;8.24;93.31;100249.98;1641719;85;21034;-77
2022/12/26 08:04:32;;;;;;;7.17;5.45;;;;;;;8.26;93.27;100257.26;1640712;86;21061;-77
2022/12/26 08:07:17;;;;;;;8.23;5.67;;;;;;;8.29;93.24;100266.23;1647786;85;21044;-77
2022/12/26 08:10:02;;;;;;;8.30;5.90;;;;;;;8.32;93.26;100254.57;1651727;86;21582;-77
2022/12/26 08:12:47;;;;;;;6.90;5.77;;;;;;;8.35;93.26;100261.00;1648565;85;21074;-77
2022/12/26 08:15:33;;;;;;;6.30;5.70;;;;;;;8.39;93.29;100264.39;1639335;85;21516;-77
2022/12/26 08:18:19;;;;;;;7.87;5.75;;;;;;;8.41;93.30;100269.95;1644978;85;21028;-77
2022/12/26 08:21:04;;;;;;;6.70;6.05;;;;;;;8.43;93.32;100265.62;1640269;85;21395;-78
2022/12/26 08:23:49;;;;;;;9.40;5.97;;;;;;;8.45;93.32;100269.03;1641122;85;21075;-78
2022/12/26 08:26:34;;;;;;;9.20;6.40;;;;;;;8.48;93.35;100271.58;1642895;83;21004;-78
2022/12/26 08:29:19;;;;;;;10.20;7.08;;;;;;;8.51;93.32;100276.69;1642120;85;21811;-78
2022/12/26 08:32:05;;;;;;;8.88;6.37;;;;;;;8.53;93.34;100265.08;1627735;86;21913;-78
2022/12/26 08:34:50;;;;;;;7.45;5.60;;;;;;;8.56;93.37;100269.75;1640139;85;21060;-78
2022/12/26 08:37:35;;;;;;;6.60;5.50;;;;;;;8.61;93.38;100273.12;1638873;86;21096;-78
2022/12/26 08:40:20;;;;;;;8.75;5.78;;;;;;;8.65;93.40;100271.36;1636109;84;21072;-78
2022/12/26 08:43:05;;;;;;;7.65;6.17;;;;;;;8.69;93.38;100262.70;1637757;86;21143;-78
2022/12/26 08:46:04;;;;;;;8.65;5.87;;;;;;;8.72;93.32;100260.53;1640739;85;21064;-78
2022/12/26 08:48:50;;;;;;;9.03;5.45;;;;;;;8.72;93.27;100256.66;1582747;88;21155;-78
2022/12/26 08:51:35;;;;;;;;;;;;;;;8.74;93.34;100266.08;1589377;89;21101;-78
2022/12/26 08:54:19;;;;;;;10.63;5.37;;;;;;;8.78;93.42;100266.45;1587669;88;20620;-78
2022/12/26 08:57:05;;;;;;;6.60;5.10;;;;;;;8.84;93.48;100270.63;1585404;87;21562;-78
2022/12/26 08:59:49;;;;;;;7.60;5.08;;;;;;;8.93;93.55;100277.80;1585714;88;21169;-78
2022/12/26 09:02:34;;;;;;;4.80;4.20;;;;;;;9.00;93.49;100273.84;1589476;87;21150;-78
2022/12/26 09:05:19;;;;;;;6.67;4.65;;;;;;;9.03;93.46;100272.06;1590332;88;21221;-78
2022/12/26 09:08:04;;;;;;;4.10;3.70;;;;;;;9.07;93.54;100280.17;1585206;87;21666;-78
2022/12/26 09:10:49;;;;;;;12.07;4.70;;;;;;;9.20;93.69;100275.68;1557054;89;21537;-78
2022/12/26 09:13:36;;;;;;;5.40;4.20;;;;;;;9.35;93.79;100275.88;1559277;89;21937;-78
2022/12/26 09:16:28;;;;;;;4.35;3.95;;;;;;;9.46;93.77;100281.68;1555548;89;25358;-78
2022/12/26 09:19:18;;;;;;;5.05;4.15;;;;;;;9.54;93.71;100281.97;1562253;89;21623;-78
2022/12/26 09:25:08;;;;;;;9.48;6.55;;;;;;;9.70;93.69;100272.23;1562844;88;21170;-78
2022/12/26 09:27:53;;;;;;;;;;;;;;;9.79;93.65;100271.21;1609582;87;21052;-78
2022/12/26 09:30:38;;;;;;;7.33;5.20;;;;;;;9.84;93.63;100278.00;1606165;87;20240;-78
2022/12/26 09:33:23;;;;;;;6.35;5.00;;;;;;;9.88;93.58;100278.31;1602593;87;21080;-78
2022/12/26 09:36:13;;;;;;;5.78;4.42;;;;;;;9.93;93.59;100280.81;1597940;87;21367;-77
2022/12/26 09:38:59;;;;;;;4.35;3.95;;;;;;;9.99;93.57;100281.14;1602758;87;21104;-77
2022/12/26 09:42:04;;;;;;;5.20;3.92;;;;;;;10.04;93.56;100284.05;1600229;87;21045;-77
2022/12/26 09:45:09;;;;;;;4.95;3.60;;;;;;;10.09;93.60;100285.25;1604913;87;21044;-77
2022/12/26 09:48:05;;;;;;;3.75;3.45;;;;;;;10.17;93.60;100289.84;1603469;87;20981;-77
2022/12/26 09:50:51;;;;;;;3.33;3.02;;;;;;;10.20;93.51;100285.49;1597017;87;20993;-77
2022/12/26 09:53:42;;;;;;;3.98;3.25;;;;;;;10.24;93.47;100297.47;1610417;87;20995;-77
2022/12/26 09:56:27;;;;;;;5.03;3.55;;;;;;;10.24;93.50;100283.70;1599998;87;21807;-77
2022/12/26 09:59:19;;;;;;;5.03;2.92;;;;;;;10.28;93.48;100281.47;1594850;87;21537;-77
2022/12/26 10:02:05;;;;;;;3.52;3.17;;;;;;;10.30;93.50;100282.29;1587067;87;21468;-77
2022/12/26 10:04:52;;;;;;;3.58;2.85;;;;;;;10.34;93.44;100276.62;1603224;87;20984;-77
2022/12/26 10:07:51;;;;;;;3.52;3.10;;;;;;;10.36;93.43;100273.56;1601554;87;20981;-77
2022/12/26 10:10:47;;;;;;;3.77;2.95;;;;;;;10.37;93.42;100270.09;1614121;84;20973;-78
2022/12/26 10:13:55;;;;;;;3.65;2.95;;;;;;;10.38;93.40;100267.48;1602390;87;20952;-78
2022/12/26 10:17:18;;;;;;;3.60;2.90;;;;;;;10.38;93.37;100267.48;1598606;87;20985;-78
2022/12/26 10:20:27;;;;;;;13.25;7.35;;;;;;;10.39;93.31;100257.55;1604487;87;20997;-78
2022/12/26 10:23:35;;;;;;;13.28;7.55;;;;;;;10.43;93.40;100269.94;1604151;87;20953;-78
2022/12/26 10:26:34;;;;;;;16.12;9.30;;;;;;;10.45;93.38;100259.97;1606988;87;20997;-78
2022/12/26 10:29:25;;;;;;;13.60;7.08;;;;;;;10.50;93.41;100265.05;1601857;87;20925;-78
2022/12/26 10:32:18;;;;;;;8.75;5.00;;;;;;;10.52;93.36;100273.17;1597165;86;21031;-78
2022/12/26 10:35:32;;;;;;;6.80;3.85;;;;;;;10.53;93.31;100277.91;1588965;87;21444;-78
2022/12/26 10:38:34;;;;;;;4.58;3.60;;;;;;;10.53;93.28;100274.03;1591831;87;21519;-78
2022/12/26 10:41:33;;;;;;;6.75;3.60;;;;;;;10.54;93.25;100284.34;1591794;87;21259;-78
2022/12/26 10:44:19;;;;;;;4.20;2.62;;;;;;;10.56;93.28;100272.23;1592976;87;20978;-78
2022/12/26 10:47:24;;;;;;;4.22;2.95;;;;;;;10.57;93.24;100266.62;1589961;87;21114;-78
2022/12/26 10:50:25;;;;;;;2.65;2.45;;;;;;;10.57;93.23;100263.59;1590337;87;21457;-78
2022/12/26 10:53:14;;;;;;;3.30;3.00;;;;;;;10.57;93.18;100262.30;1593116;87;21375;-78
2022/12/26 10:56:00;;;;;;;2.67;2.45;;;;;;;10.58;93.17;100267.03;1588143;87;21614;-78
2022/12/26 10:58:45;;;;;;;2.85;2.55;;;;;;;10.59;93.13;100259.68;1590573;87;21798;-78
2022/12/26 11:01:39;;;;;;;2.85;2.62;;;;;;;10.59;93.17;100255.80;1592657;87;21011;-78
2022/12/26 11:04:25;;;;;;;3.65;2.83;;;;;;;10.60;93.18;100259.65;1589182;87;21075;-78
2022/12/26 11:07:12;;;;;;;3.55;3.22;;;;;;;10.62;93.14;100254.44;1588139;87;21108;-78
2022/12/26 11:09:58;;;;;;;5.17;2.60;;;;;;;10.61;93.16;100254.03;1589521;87;20936;-78
2022/12/26 11:12:51;;;;;;;5.17;2.90;;;;;;;10.64;93.12;100259.58;1590990;87;21024;-78
2022/12/26 11:15:49;;;;;;;2.65;2.35;;;;;;;10.65;93.13;100265.16;1588339;87;21899;-78
2022/12/26 11:18:42;;;;;;;4.08;2.50;;;;;;;10.66;93.10;100266.86;1589510;87;21003;-79
2022/12/26 11:21:29;;;;;;;4.45;2.55;;;;;;;10.67;93.09;100267.27;1589228;87;20951;-78
2022/12/26 11:24:19;;;;;;;4.40;2.70;;;;;;;10.65;93.05;100267.75;1588070;87;21036;-78
2022/12/26 11:27:19;;;;;;;2.77;2.58;;;;;;;10.66;93.09;100274.17;1584479;87;21047;-78
2022/12/26 11:30:24;;;;;;;2.27;2.08;;;;;;;10.67;92.99;100273.73;1588785;87;21857;-78
2022/12/26 11:33:14;;;;;;;2.83;2.40;;;;;;;10.67;92.95;100276.32;1601038;87;21440;-78
2022/12/26 11:36:17;;;;;;;3.20;2.33;;;;;;;10.67;92.98;100277.17;1608627;86;21581;-78
2022/12/26 11:39:25;;;;;;;2.50;2.20;;;;;;;10.65;92.94;100272.92;1613984;86;20993;-78
2022/12/26 11:42:20;;;;;;;3.22;2.80;;;;;;;10.64;92.89;100268.63;1607940;86;21529;-78
2022/12/26 11:45:10;;;;;;;2.90;2.60;;;;;;;10.61;92.90;100274.28;1606484;87;21438;-78
2022/12/26 11:47:58;;;;;;;3.02;2.70;;;;;;;10.60;92.87;100293.26;1604312;87;21349;-78
2022/12/26 11:50:45;;;;;;;3.52;2.67;;;;;;;10.58;92.85;100289.00;1609317;87;20977;-78
2022/12/26 11:53:33;;;;;;;2.77;2.58;;;;;;;10.57;92.86;100292.03;1602146;86;20984;-78
2022/12/26 11:56:22;;;;;;;5.62;3.00;;;;;;;10.55;92.84;100294.23;1600090;85;21062;-78
2022/12/26 11:59:18;;;;;;;3.55;2.85;;;;;;;10.54;92.83;100290.80;1604174;86;20930;-78
2022/12/26 12:02:23;;;;;;;6.28;2.90;;;;;;;10.54;92.83;100287.36;1602728;86;26565;-78
2022/12/26 12:05:37;;;;;;;3.80;2.50;;;;;;;10.54;92.82;100287.36;1603382;86;21033;-78
2022/12/26 12:09:03;;;;;;;3.75;2.90;;;;;;;10.54;92.79;100281.75;1613114;86;21432;-78
2022/12/26 12:12:18;;;;;;;3.62;3.08;;;;;;;10.54;92.79;100275.29;1603853;87;20922;-78
2022/12/26 12:15:24;;;;;;;3.15;2.72;;;;;;;10.55;92.73;100264.50;1572719;89;20971;-78
2022/12/26 12:18:33;;;;;;;4.33;3.30;;;;;;;10.54;92.70;100259.78;1559325;89;20967;-78
2022/12/26 12:21:59;;;;;;;4.55;2.50;;;;;;;10.55;92.73;100252.43;1569522;89;21306;-78
2022/12/26 12:25:24;;;;;;;3.45;2.80;;;;;;;10.56;92.73;100237.33;1555076;89;21493;-78
2022/12/26 12:28:32;;;;;;;4.43;3.30;;;;;;;10.58;92.72;100247.64;1560115;89;21868;-78
2022/12/26 12:31:48;;;;;;;3.87;3.17;;;;;;;10.58;92.72;100250.22;1552594;89;24822;-78
2022/12/26 12:35:21;;;;;;;4.78;3.30;;;;;;;10.57;92.66;100242.91;1587356;87;20956;-78
2022/12/26 12:38:32;;;;;;;3.25;2.92;;;;;;;10.57;92.66;100242.91;1545165;91;21837;-78
2022/12/26 12:41:46;;;;;;;8.93;5.72;;;;;;;10.56;92.61;100243.79;1546571;91;21031;-78
2022/12/26 12:45:13;;;;;;;13.22;7.08;;;;;;;10.56;92.59;100250.25;1567103;90;21041;-78
2022/12/26 12:48:26;;;;;;;14.33;6.90;;;;;;;10.56;92.59;100252.84;1553346;89;21042;-78
2022/12/26 12:51:47;;;;;;;15.48;6.62;;;;;;;10.54;92.57;100252.02;1601437;88;21001;-78
2022/12/26 12:54:55;;;;;;;6.37;4.50;;;;;;;10.54;92.56;100258.48;1601925;87;21054;-78
2022/12/26 12:58:09;;;;;;;6.03;4.10;;;;;;;10.53;92.52;100249.03;1597119;88;21061;-78
2022/12/26 13:01:05;;;;;;;4.37;2.95;;;;;;;10.54;92.47;100249.88;1599406;88;20976;-78
2022/12/26 13:04:11;;;;;;;3.40;2.87;;;;;;;10.54;92.45;100249.44;1602429;87;21024;-78
2022/12/26 13:07:15;;;;;;;2.50;2.30;;;;;;;10.56;92.48;100261.04;1603784;86;20966;-78
2022/12/26 13:10:05;;;;;;;3.47;2.47;;;;;;;10.57;92.46;100271.34;1636384;86;20969;-78
2022/12/26 13:12:52;;;;;;;2.87;2.40;;;;;;;10.57;92.37;100257.57;1639872;86;20918;-78
2022/12/26 13:15:45;;;;;;;3.22;2.08;;;;;;;10.56;92.35;100263.19;1641923;85;21446;-78
2022/12/26 13:18:34;;;;;;;2.30;2.10;;;;;;;10.56;92.33;100263.19;1646542;85;20989;-78
2022/12/26 13:21:21;;;;;;;4.10;2.50;;;;;;;10.55;92.28;100264.06;1645180;85;21605;-78
2022/12/26 13:24:24;;;;;;;;;;;;;;;10.55;92.28;100271.82;1643119;85;21037;-78
2022/12/26 13:27:31;;;;;;;9.48;2.75;;;;;;;10.55;92.17;100265.80;1638440;85;20144;-78
2022/12/26 13:30:17;;;;;;;4.10;2.50;;;;;;;10.55;92.22;100264.50;1640134;85;21037;-78
2022/12/26 13:33:03;;;;;;;2.37;2.12;;;;;;;10.51;92.13;100261.13;1647124;85;21426;-78
2022/12/26 13:35:57;;;;;;;;;;;;;;;10.50;92.15;100268.92;1652565;85;20917;-78
2022/12/26 13:39:01;;;;;;;4.65;3.15;;;;;;;10.49;92.05;100269.36;1646211;85;20158;-78
2022/12/26 13:44:55;;;;;;;7.03;4.03;;;;;;;10.45;92.01;100272.89;1640978;85;20977;-78
2022/12/26 13:47:40;;;;;;;6.35;4.60;;;;;;;10.42;92.01;100274.25;1646399;85;20926;-78
2022/12/26 13:50:55;;;;;;;4.70;3.70;;;;;;;10.42;91.99;100274.69;1651058;85;20957;-78
2022/12/26 13:53:40;;;;;;;7.20;3.95;;;;;;;10.42;92.00;100288.47;1647372;85;20925;-78
2022/12/26 13:56:31;;;;;;;6.03;3.05;;;;;;;10.38;91.94;100293.33;1646418;85;20953;-78
2022/12/26 13:59:26;;;;;;;5.17;3.20;;;;;;;10.37;91.92;100307.12;1530468;84;5001647;-78
2022/12/26 14:03:00;;;;;;;4.30;3.15;;;;;;;10.34;91.87;100294.70;1651862;85;21017;-78
2022/12/26 14:06:12;;;;;;;7.33;2.65;;;;;;;10.34;91.87;100294.70;1638222;86;20953;-78
2022/12/26 14:09:19;;;;;;;4.47;3.08;;;;;;;10.31;91.82;100295.62;1637871;85;20961;-78
2022/12/26 14:12:15;;;;;;;6.22;3.25;;;;;;;10.31;91.79;100294.77;1637826;84;20976;-78
2022/12/26 14:15:30;;;;;;;4.60;2.90;;;;;;;10.29;91.78;100289.62;1581670;88;20917;-78
2022/12/26 14:18:23;;;;;;;5.37;3.70;;;;;;;10.25;91.72;100294.01;1589610;88;21529;-78
2022/12/26 14:21:25;;;;;;;5.67;3.37;;;;;;;10.23;91.76;100308.69;1613651;88;22096;-78
2022/12/26 14:24:30;;;;;;;4.60;3.58;;;;;;;10.21;91.67;100317.35;1593119;87;21010;-78
2022/12/26 14:27:35;;;;;;;7.42;3.92;;;;;;;10.16;91.66;100326.45;1580408;87;398490;-78
2022/12/26 14:30:49;;;;;;;3.42;3.05;;;;;;;10.14;91.66;100330.80;1624590;86;20999;-78
2022/12/26 14:34:20;;;;;;;3.85;2.52;;;;;;;10.13;91.63;100328.23;1601072;86;21580;-78
2022/12/26 14:37:41;;;;;;;3.10;2.80;;;;;;;10.10;91.61;100321.39;1626313;86;20959;-78
2022/12/26 14:40:34;;;;;;;5.65;3.40;;;;;;;10.08;91.56;100311.97;1614043;85;20996;-78
2022/12/26 14:43:39;;;;;;;12.55;6.65;;;;;;;10.03;91.51;100315.92;1573287;84;5000877;-78
2022/12/26 14:46:37;;;;;;;12.55;7.12;;;;;;;10.00;91.50;100323.73;1645002;82;21667;-78
2022/12/26 14:49:34;;;;;;;9.03;5.78;;;;;;;9.96;91.46;100335.00;1658892;84;21134;-78
2022/12/26 14:52:28;;;;;;;;;;;;;;;9.93;91.48;100335.91;1657505;84;21092;-78
2022/12/26 14:55:50;;;;;;;5.40;3.27;;;;;;;9.91;91.37;100340.69;1643910;85;20187;-78
2022/12/26 14:58:51;;;;;;;3.42;2.20;;;;;;;9.88;91.39;100331.26;1651834;83;21628;-78
2022/12/26 15:01:44;;;;;;;2.72;2.00;;;;;;;9.85;91.37;100336.52;1654657;85;21047;-78
2022/12/26 15:04:37;;;;;;;4.85;2.08;;;;;;;9.83;91.37;100345.16;1647176;85;21124;-78
2022/12/26 15:07:54;;;;;;;7.58;2.77;;;;;;;9.80;91.33;100340.05;1656018;85;21132;-78
2022/12/26 15:11:19;;;;;;;5.78;3.17;;;;;;;9.78;91.30;100334.91;1585221;89;21111;-78
2022/12/26 15:14:30;;;;;;;8.58;5.00;;;;;;;9.77;91.28;100340.10;1652549;85;21057;-78
2022/12/26 15:17:44;;;;;;;16.27;8.00;;;;;;;9.76;91.29;100345.70;1647671;85;21654;-78
2022/12/26 15:21:18;;;;;;;18.60;9.00;;;;;;;9.75;91.28;100347.02;1595529;85;21061;-78
2022/12/26 15:24:33;;;;;;;13.18;6.60;;;;;;;9.73;91.28;100339.30;1651848;84;22175;-77
2022/12/26 15:27:34;;;;;;;9.05;5.40;;;;;;;9.72;91.25;100341.91;1631058;86;50891;-77
2022/12/26 15:30:45;;;;;;;12.43;5.33;;;;;;;9.70;91.23;100344.95;1632476;85;21128;-78
2022/12/26 15:33:44;;;;;;;9.15;3.80;;;;;;;9.70;91.25;100345.80;1655664;85;22152;-77
2022/12/26 15:36:55;;;;;;;5.85;3.70;;;;;;;9.71;91.25;100344.08;1632852;86;21152;-77
2022/12/26 15:39:50;;;;;;;4.97;2.62;;;;;;;9.70;91.21;100344.52;1646327;82;21131;-77
2022/12/26 15:43:01;;;;;;;3.22;2.92;;;;;;;9.71;91.22;100351.83;1641097;82;21072;-77